• Join FlightAware (Why Join?)
  • Login
  • US Flag 
08:36PM EDT


 

Airport Tracker/Info


-or-


 

Live Flight TrackerFlight Track Log ✈ BYA373 ✈ 18-Apr-2013 ✈ KDAY - KGAD

Flight Track Log - Related Links

Times and Time Zones

All times are in EDT time to prevent confusion due to time zone crossing. See the BYA373 flight status page for this flight to view local times or setup timezone preferences in your user account.

Time Position Orientation Groundspeed Altitude Reporting Facility
EDT Latitude Longitude Course Direction KTS MPH feet Rate Location/Type
07:17PM 39.8797 -84.2419 230° Southwest 135 155 2,200  Level Indianapolis Center
07:18PM 39.8650 -84.2631 228° Southwest 136 157 3,300 1,920 Climbing Indianapolis Center
07:18PM 39.8581 -84.2797 242° Southwest 139 160 4,000 1,860 Climbing Indianapolis Center
07:19PM 39.8450 -84.3039 235° Southwest 135 155 5,200 1,740 Climbing Indianapolis Center
07:20PM 39.8231 -84.3414 233° Southwest 131 151 7,200 1,800 Climbing Indianapolis Center
07:21PM 39.7967 -84.3742 224° Southwest 129 148 9,000 1,680 Climbing Indianapolis Center
07:22PM 39.7728 -84.4164 234° Southwest 127 146 10,700 1,500 Climbing Indianapolis Center
07:23PM 39.7419 -84.4439 214° Southwest 134 154 12,100 1,320 Climbing Indianapolis Center
07:24PM 39.7025 -84.4572 195° South 142 163 13,500 1,260 Climbing Indianapolis Center
07:25PM 39.6653 -84.4700 195° South 140 161 14,800 1,080 Climbing Indianapolis Center
07:26PM 39.6286 -84.4825 195° South 137 158 15,800 900 Climbing Indianapolis Center
07:27PM 39.5906 -84.4972 197° South 140 161 16,700 840 Climbing Indianapolis Center
07:28PM 39.5525 -84.5131 198° South 143 165 17,600 840 Climbing Indianapolis Center
07:29PM 39.5136 -84.5267 195° South 143 165 18,500 780 Climbing Indianapolis Center
07:30PM 39.4719 -84.5356 189° South 150 173 19,200 660 Climbing Indianapolis Center
07:31PM 39.4281 -84.5444 189° South 157 181 19,900 360 Climbing Indianapolis Center
07:32PM 39.3839 -84.5569 192° South 161 185 20,000  Climbing Indianapolis Center
07:33PM 39.3339 -84.5719 193° South 177 204 20,000  Level Indianapolis Center
07:34PM 39.2719 -84.5906 193° South 191 220 20,000  Level Indianapolis Center
07:35PM 39.2192 -84.6075 194° South 193 222 20,000  Level Indianapolis Center
07:36PM 39.1650 -84.6200 190° South 195 224 20,100  Climbing Indianapolis Center
07:37PM 39.1103 -84.6350 192° South 198 228 20,000 -60 Descending Indianapolis Center
07:38PM 39.0578 -84.6567 198° South 198 228 20,000  Level Indianapolis Center
07:39PM 39.0044 -84.6756 195° South 197 227 20,100  Climbing Indianapolis Center
07:40PM 38.9503 -84.6956 196° South 200 230 20,000 -60 Descending Indianapolis Center
07:41PM 38.8925 -84.7008 184° South 208 239 20,000  Level Indianapolis Center
07:42PM 38.8372 -84.7081 186° South 202 232 20,000  Level Indianapolis Center
07:43PM 38.7833 -84.7261 195° South 202 232 20,000  Level Indianapolis Center
07:44PM 38.7319 -84.7489 199° South 198 228 20,000  Level Indianapolis Center
07:45PM 38.6778 -84.7719 198° South 200 230 20,000  Level Indianapolis Center
07:46PM 38.6167 -84.7933 195° South 198 228 20,000  Level Indianapolis Center
07:47PM 38.5631 -84.8147 197° South 202 232 20,000  Level Indianapolis Center
07:48PM 38.5086 -84.8369 198° South 203 234 20,000  Level Indianapolis Center
07:49PM 38.4550 -84.8528 193° South 199 229 20,000  Level Indianapolis Center
07:50PM 38.4011 -84.8736 197° South 201 231 20,000  Level Indianapolis Center
07:51PM 38.3464 -84.8889 192° South 201 231 20,000  Level Indianapolis Center
07:52PM 38.2908 -84.9047 193° South 203 234 20,000  Level Indianapolis Center
07:53PM 38.2375 -84.9231 195° South 200 230 20,000  Level Indianapolis Center
07:54PM 38.1744 -84.9417 193° South 199 229 20,000  Level Indianapolis Center
07:55PM 38.1197 -84.9581 193° South 201 231 20,000  Level Indianapolis Center
07:56PM 38.0656 -84.9750 194° South 200 230 20,000  Level Indianapolis Center
07:58PM 38.0106 -84.9892 191° South 201 231 20,000  Level Indianapolis Center
07:59PM 37.9569 -85.0064 194° South 199 229 20,000  Level Indianapolis Center
08:00PM 37.8994 -85.0211 191° South 208 239 20,000  Level Indianapolis Center
08:01PM 37.8458 -85.0375 194° South 200 230 20,000  Level Indianapolis Center
08:02PM 37.7906 -85.0519 192° South 203 234 20,000  Level Indianapolis Center
08:03PM 37.7367 -85.0694 194° South 200 230 20,000  Level Indianapolis Center
08:04PM 37.6722 -85.0886 193° South 201 231 20,000  Level Indianapolis Center
08:05PM 37.6167 -85.1028 191° South 204 235 20,000  Level Indianapolis Center
08:06PM 37.5608 -85.1197 194° South 207 238 20,000  Level Indianapolis Center
08:07PM 37.5047 -85.1344 192° South 205 236 20,000  Level Indianapolis Center
08:08PM 37.4500 -85.1519 194° South 202 232 20,000  Level Indianapolis Center
08:09PM 37.3956 -85.1675 193° South 200 230 20,000  Level Indianapolis Center
08:10PM 37.3436 -85.1806 191° South 191 220 20,000  Level Indianapolis Center
08:11PM 37.2911 -85.1939 191° South 191 220 20,000  Level Indianapolis Center
08:12PM 37.2317 -85.2092 192° South 188 216 20,000  Level Indianapolis Center
08:13PM 37.1808 -85.2236 193° South 187 215 20,000  Level Indianapolis Center
08:14PM 37.1286 -85.2372 192° South 190 219 20,000  Level Indianapolis Center
08:15PM 37.0769 -85.2522 193° South 191 220 20,000  Level Indianapolis Center
08:16PM 37.0203 -85.2681 193° South 195 224 20,100  Climbing Indianapolis Center
08:17PM 36.9686 -85.2839 194° South 195 224 20,000 -60 Descending Indianapolis Center
08:18PM 36.9158 -85.2989 193° South 194 223 20,000  Level Indianapolis Center
08:19PM 36.8619 -85.3106 190° South 196 226 20,100  Climbing Indianapolis Center
08:20PM 36.8083 -85.3258 193° South 197 227 20,100 -60 Level Indianapolis Center
08:21PM 36.7544 -85.3406 192° South 198 228 20,000 -60 Descending Indianapolis Center
08:22PM 36.7036 -85.3575 195° South 191 220 20,000  Level Indianapolis Center
08:23PM 36.6500 -85.3756 195° South 196 226 20,000  Level Indianapolis Center
08:24PM 36.5875 -85.3964 195° South 194 223 20,000  Level Indianapolis Center
08:25PM 36.5342 -85.4139 195° South 197 227 20,000  Level Indianapolis Center
08:26PM 36.4808 -85.4292 193° South 196 226 20,000  Level Indianapolis Center
08:27PM 36.4258 -85.4467 194° South 202 232 20,000  Level Indianapolis Center
08:28PM 36.3725 -85.4603 192° South 198 228 20,100  Climbing Indianapolis Center
08:29PM 36.3186 -85.4767 194° South 199 229 20,000 -60 Descending Indianapolis Center
08:30PM 36.2642 -85.4908 192° South 200 230 20,000  Level Indianapolis Center
08:31PM 36.2089 -85.5047 191° South 200 230 20,000  Level Indianapolis Center
08:32PM 36.1431 -85.5203 191° South 202 232 20,000  Level Indianapolis Center
08:33PM 36.0978 -85.5278 188° South 201 231 20,000  Level Memphis Center
08:34PM 36.0442 -85.5386 189° South 201 231 20,000 -60 Level Memphis Center
08:35PM 35.9883 -85.5497 189° South 201 231 19,900  Descending Memphis Center
08:36PM 35.9347 -85.5656 193° South 201 231 20,000  Climbing Memphis Center
08:37PM 35.8808 -85.5789 191° South 201 231 20,000  Level Memphis Center
08:38PM 35.8272 -85.5950 194° South 201 231 20,000  Level Memphis Center
08:39PM 35.7736 -85.6083 191° South 201 231 20,000  Level Memphis Center
08:40PM 35.7200 -85.6217 191° South 201 231 20,000  Level Memphis Center
08:41PM 35.6639 -85.6325 189° South 201 231 20,000  Level Memphis Center
08:42PM 35.6081 -85.6433 189° South 201 231 20,000  Level Memphis Center
08:43PM 35.5544 -85.6592 194° South 201 231 20,000  Level Memphis Center
08:44PM 35.5031 -85.6772 196° South 201 231 20,000  Level Memphis Center
08:45PM 35.4406 -85.6808 183° South 201 231 20,000  Level Memphis Center
08:46PM 35.3842 -85.6739 174° South 206 237 20,000  Level Memphis Center
08:47PM 35.3250 -85.6567 167° South 211 243 20,000  Level Memphis Center
08:48PM 35.2658 -85.6347 163° South 217 250 20,000  Level Memphis Center
08:50PM 35.1569 -85.6469 185° South 204 235 20,000 -180 Level Atlanta Center
08:51PM 35.1025 -85.6711 200° South 204 235 19,600 -900 Descending Atlanta Center
08:52PM 35.0394 -85.6928 196° South 218 251 18,200 -1,440 Descending Atlanta Center
08:53PM 34.9725 -85.7194 198° South 238 274 16,800 -1,260 Descending Atlanta Center
08:54PM 34.9031 -85.7458 197° South 257 296 15,700 -1,140 Descending Atlanta Center
08:55PM 34.8361 -85.7722 198° South 257 296 14,600 -1,380 Descending Atlanta Center
08:56PM 34.7667 -85.8011 199° South 262 302 13,000 -1,560 Descending Atlanta Center
08:57PM 34.6953 -85.8325 200° South 269 310 11,500 -1,740 Descending Atlanta Center
08:58PM 34.6281 -85.8589 198° South 269 310 9,600 -1,620 Descending Atlanta Center
08:59PM 34.5631 -85.8825 197° South 264 304 8,300 -1,380 Descending Atlanta Center
09:00PM 34.5003 -85.9064 197° South 253 291 6,900 -1,320 Descending Atlanta Center
09:01PM 34.4392 -85.9328 200° South 246 283 5,700 -1,260 Descending Atlanta Center
09:02PM 34.3783 -85.9542 196° South 235 270 4,400 -840 Descending Atlanta Center
09:03PM 34.3092 -85.9803 197° South 235 270 4,100 -300 Descending Atlanta Center